sensor_id;sensor_type;location;lat;lon;timestamp;temperature;humidity
8043;DHT22;4064;48.132;11.366;2023-09-08T00:01:37;14.60;99.90
8043;DHT22;4064;48.132;11.366;2023-09-08T00:04:03;14.50;99.90
8043;DHT22;4064;48.132;11.366;2023-09-08T00:06:29;14.40;99.90
8043;DHT22;4064;48.132;11.366;2023-09-08T00:08:55;14.50;99.90
8043;DHT22;4064;48.132;11.366;2023-09-08T00:11:20;14.60;99.90
8043;DHT22;4064;48.132;11.366;2023-09-08T00:13:46;14.60;99.90
8043;DHT22;4064;48.132;11.366;2023-09-08T00:16:11;14.60;99.90
8043;DHT22;4064;48.132;11.366;2023-09-08T00:18:37;14.50;99.90
8043;DHT22;4064;48.132;11.366;2023-09-08T00:21:03;14.60;99.90
8043;DHT22;4064;48.132;11.366;2023-09-08T00:23:28;14.50;99.90
8043;DHT22;4064;48.132;11.366;2023-09-08T00:25:54;14.30;99.90
8043;DHT22;4064;48.132;11.366;2023-09-08T00:28:19;14.30;99.90
8043;DHT22;4064;48.132;11.366;2023-09-08T00:30:45;14.30;99.90
8043;DHT22;4064;48.132;11.366;2023-09-08T00:33:10;14.30;99.90
8043;DHT22;4064;48.132;11.366;2023-09-08T00:35:39;14.30;99.90
8043;DHT22;4064;48.132;11.366;2023-09-08T00:38:04;14.30;99.90
8043;DHT22;4064;48.132;11.366;2023-09-08T00:40:30;14.30;99.90
8043;DHT22;4064;48.132;11.366;2023-09-08T00:42:56;14.20;99.90
8043;DHT22;4064;48.132;11.366;2023-09-08T00:45:21;14.30;99.90
8043;DHT22;4064;48.132;11.366;2023-09-08T00:47:48;14.20;99.90
8043;DHT22;4064;48.132;11.366;2023-09-08T00:50:13;14.20;99.90
8043;DHT22;4064;48.132;11.366;2023-09-08T00:52:39;14.10;99.90
8043;DHT22;4064;48.132;11.366;2023-09-08T00:55:05;14.00;99.90
8043;DHT22;4064;48.132;11.366;2023-09-08T00:57:31;14.20;99.90
8043;DHT22;4064;48.132;11.366;2023-09-08T00:59:57;14.00;99.90
8043;DHT22;4064;48.132;11.366;2023-09-08T01:02:23;14.10;99.90
8043;DHT22;4064;48.132;11.366;2023-09-08T01:04:49;14.10;99.90
8043;DHT22;4064;48.132;11.366;2023-09-08T01:07:15;14.20;99.90
8043;DHT22;4064;48.132;11.366;2023-09-08T01:09:42;14.20;99.90
8043;DHT22;4064;48.132;11.366;2023-09-08T01:12:08;14.10;99.90
8043;DHT22;4064;48.132;11.366;2023-09-08T01:14:33;14.10;99.90
8043;DHT22;4064;48.132;11.366;2023-09-08T01:16:59;14.10;99.90
8043;DHT22;4064;48.132;11.366;2023-09-08T01:19:25;14.10;99.90
8043;DHT22;4064;48.132;11.366;2023-09-08T01:26:53;13.80;99.90
8043;DHT22;4064;48.132;11.366;2023-09-08T01:29:19;13.90;99.90
8043;DHT22;4064;48.132;11.366;2023-09-08T01:31:45;13.80;99.90
8043;DHT22;4064;48.132;11.366;2023-09-08T01:34:12;13.90;99.90
8043;DHT22;4064;48.132;11.366;2023-09-08T01:36:38;13.70;99.90
8043;DHT22;4064;48.132;11.366;2023-09-08T01:39:04;13.70;99.90
8043;DHT22;4064;48.132;11.366;2023-09-08T01:41:30;13.80;99.90
8043;DHT22;4064;48.132;11.366;2023-09-08T01:43:56;13.70;99.90
8043;DHT22;4064;48.132;11.366;2023-09-08T01:46:23;13.80;99.90
8043;DHT22;4064;48.132;11.366;2023-09-08T01:48:48;13.70;99.90
8043;DHT22;4064;48.132;11.366;2023-09-08T01:51:14;13.80;99.90
8043;DHT22;4064;48.132;11.366;2023-09-08T01:53:39;13.80;99.90
8043;DHT22;4064;48.132;11.366;2023-09-08T01:56:05;13.80;99.90
8043;DHT22;4064;48.132;11.366;2023-09-08T01:58:30;13.80;99.90
8043;DHT22;4064;48.132;11.366;2023-09-08T02:00:58;13.70;99.90
8043;DHT22;4064;48.132;11.366;2023-09-08T02:03:28;13.80;99.90
8043;DHT22;4064;48.132;11.366;2023-09-08T02:05:55;13.90;99.90
8043;DHT22;4064;48.132;11.366;2023-09-08T02:08:20;13.60;99.90
8043;DHT22;4064;48.132;11.366;2023-09-08T02:10:46;13.70;99.90
8043;DHT22;4064;48.132;11.366;2023-09-08T02:13:11;13.70;99.90
8043;DHT22;4064;48.132;11.366;2023-09-08T02:15:37;13.60;99.90
8043;DHT22;4064;48.132;11.366;2023-09-08T02:18:03;13.60;99.90
8043;DHT22;4064;48.132;11.366;2023-09-08T02:20:29;13.50;99.90
8043;DHT22;4064;48.132;11.366;2023-09-08T02:22:54;13.20;99.90
8043;DHT22;4064;48.132;11.366;2023-09-08T02:25:20;13.00;99.90
8043;DHT22;4064;48.132;11.366;2023-09-08T02:27:48;13.40;99.90
8043;DHT22;4064;48.132;11.366;2023-09-08T02:30:13;13.40;99.90
8043;DHT22;4064;48.132;11.366;2023-09-08T02:32:39;13.50;99.90
8043;DHT22;4064;48.132;11.366;2023-09-08T02:35:08;13.50;99.90
8043;DHT22;4064;48.132;11.366;2023-09-08T02:37:34;13.20;99.90
8043;DHT22;4064;48.132;11.366;2023-09-08T02:39:59;13.40;99.90
8043;DHT22;4064;48.132;11.366;2023-09-08T02:42:25;13.40;99.90
8043;DHT22;4064;48.132;11.366;2023-09-08T02:44:51;13.50;99.90
8043;DHT22;4064;48.132;11.366;2023-09-08T02:47:17;13.30;99.90
8043;DHT22;4064;48.132;11.366;2023-09-08T02:49:43;13.20;99.90
8043;DHT22;4064;48.132;11.366;2023-09-08T02:52:09;13.30;99.90
8043;DHT22;4064;48.132;11.366;2023-09-08T02:54:34;13.40;99.90
8043;DHT22;4064;48.132;11.366;2023-09-08T02:57:00;13.30;99.90
8043;DHT22;4064;48.132;11.366;2023-09-08T02:59:25;13.40;99.90
8043;DHT22;4064;48.132;11.366;2023-09-08T03:01:51;13.10;99.90
8043;DHT22;4064;48.132;11.366;2023-09-08T03:04:17;13.10;99.90
8043;DHT22;4064;48.132;11.366;2023-09-08T03:06:42;13.10;99.90
8043;DHT22;4064;48.132;11.366;2023-09-08T03:09:08;13.20;99.90
8043;DHT22;4064;48.132;11.366;2023-09-08T03:11:33;13.20;99.90
8043;DHT22;4064;48.132;11.366;2023-09-08T03:13:59;13.10;99.90
8043;DHT22;4064;48.132;11.366;2023-09-08T03:16:25;12.90;99.90
8043;DHT22;4064;48.132;11.366;2023-09-08T03:18:50;13.10;99.90
8043;DHT22;4064;48.132;11.366;2023-09-08T03:21:16;13.10;99.90
8043;DHT22;4064;48.132;11.366;2023-09-08T03:23:43;12.90;99.90
8043;DHT22;4064;48.132;11.366;2023-09-08T03:26:09;12.60;99.90
8043;DHT22;4064;48.132;11.366;2023-09-08T03:28:36;12.90;99.90
8043;DHT22;4064;48.132;11.366;2023-09-08T03:31:02;12.90;99.90
8043;DHT22;4064;48.132;11.366;2023-09-08T03:33:28;12.90;99.90
8043;DHT22;4064;48.132;11.366;2023-09-08T03:35:54;13.00;99.90
8043;DHT22;4064;48.132;11.366;2023-09-08T03:38:20;13.00;99.90
8043;DHT22;4064;48.132;11.366;2023-09-08T03:40:46;12.70;99.90
8043;DHT22;4064;48.132;11.366;2023-09-08T03:43:12;12.60;99.90
8043;DHT22;4064;48.132;11.366;2023-09-08T03:45:37;12.80;99.90
8043;DHT22;4064;48.132;11.366;2023-09-08T03:48:03;12.80;99.90
8043;DHT22;4064;48.132;11.366;2023-09-08T03:50:29;12.90;99.90
8043;DHT22;4064;48.132;11.366;2023-09-08T03:52:55;13.00;99.90
8043;DHT22;4064;48.132;11.366;2023-09-08T03:55:21;13.10;99.90
8043;DHT22;4064;48.132;11.366;2023-09-08T03:57:46;13.00;99.90
8043;DHT22;4064;48.132;11.366;2023-09-08T04:00:13;13.00;99.90
8043;DHT22;4064;48.132;11.366;2023-09-08T04:02:44;13.00;99.90
8043;DHT22;4064;48.132;11.366;2023-09-08T04:05:10;12.70;99.90
8043;DHT22;4064;48.132;11.366;2023-09-08T04:07:36;12.90;99.90
8043;DHT22;4064;48.132;11.366;2023-09-08T04:10:02;12.70;99.90
8043;DHT22;4064;48.132;11.366;2023-09-08T04:12:28;12.90;99.90
8043;DHT22;4064;48.132;11.366;2023-09-08T04:14:54;13.00;99.90
8043;DHT22;4064;48.132;11.366;2023-09-08T04:17:19;12.70;99.90
8043;DHT22;4064;48.132;11.366;2023-09-08T04:19:45;12.80;99.90
8043;DHT22;4064;48.132;11.366;2023-09-08T04:22:10;12.90;99.90
8043;DHT22;4064;48.132;11.366;2023-09-08T04:24:36;12.70;99.90
8043;DHT22;4064;48.132;11.366;2023-09-08T04:27:03;12.80;99.90
8043;DHT22;4064;48.132;11.366;2023-09-08T04:29:30;12.80;99.90
8043;DHT22;4064;48.132;11.366;2023-09-08T04:31:55;12.70;99.90
8043;DHT22;4064;48.132;11.366;2023-09-08T04:34:21;12.50;99.90
8043;DHT22;4064;48.132;11.366;2023-09-08T04:36:47;12.80;99.90
8043;DHT22;4064;48.132;11.366;2023-09-08T04:39:12;12.80;99.90
8043;DHT22;4064;48.132;11.366;2023-09-08T04:41:40;12.70;99.90
8043;DHT22;4064;48.132;11.366;2023-09-08T04:44:06;12.80;99.90
8043;DHT22;4064;48.132;11.366;2023-09-08T04:46:31;12.80;99.90
8043;DHT22;4064;48.132;11.366;2023-09-08T04:48:57;12.70;99.90
8043;DHT22;4064;48.132;11.366;2023-09-08T04:51:23;12.80;99.90
8043;DHT22;4064;48.132;11.366;2023-09-08T04:53:48;12.90;99.90
8043;DHT22;4064;48.132;11.366;2023-09-08T04:56:14;12.80;99.90
8043;DHT22;4064;48.132;11.366;2023-09-08T04:58:39;12.70;99.90
8043;DHT22;4064;48.132;11.366;2023-09-08T05:01:05;12.80;99.90
8043;DHT22;4064;48.132;11.366;2023-09-08T05:03:31;12.50;99.90
8043;DHT22;4064;48.132;11.366;2023-09-08T05:05:56;12.20;99.90
8043;DHT22;4064;48.132;11.366;2023-09-08T05:08:22;12.50;99.90
8043;DHT22;4064;48.132;11.366;2023-09-08T05:10:48;12.60;99.90
8043;DHT22;4064;48.132;11.366;2023-09-08T05:13:13;12.50;99.90
8043;DHT22;4064;48.132;11.366;2023-09-08T05:15:39;12.70;99.90
8043;DHT22;4064;48.132;11.366;2023-09-08T05:18:07;12.70;99.90
8043;DHT22;4064;48.132;11.366;2023-09-08T05:20:33;12.70;99.90
8043;DHT22;4064;48.132;11.366;2023-09-08T05:22:58;12.40;99.90
8043;DHT22;4064;48.132;11.366;2023-09-08T05:25:24;12.40;99.90
8043;DHT22;4064;48.132;11.366;2023-09-08T05:27:50;12.70;99.90
8043;DHT22;4064;48.132;11.366;2023-09-08T05:30:15;12.90;99.90
8043;DHT22;4064;48.132;11.366;2023-09-08T05:32:41;12.90;99.90
8043;DHT22;4064;48.132;11.366;2023-09-08T05:35:07;13.00;99.90
8043;DHT22;4064;48.132;11.366;2023-09-08T05:37:32;13.00;99.90
8043;DHT22;4064;48.132;11.366;2023-09-08T05:39:58;13.20;99.90
8043;DHT22;4064;48.132;11.366;2023-09-08T05:42:23;13.20;99.90
8043;DHT22;4064;48.132;11.366;2023-09-08T05:44:49;13.10;99.90
8043;DHT22;4064;48.132;11.366;2023-09-08T05:47:15;13.20;99.90
8043;DHT22;4064;48.132;11.366;2023-09-08T05:49:40;13.30;99.90
8043;DHT22;4064;48.132;11.366;2023-09-08T05:52:06;13.30;99.90
8043;DHT22;4064;48.132;11.366;2023-09-08T05:54:31;13.20;99.90
8043;DHT22;4064;48.132;11.366;2023-09-08T05:56:57;13.30;99.90
8043;DHT22;4064;48.132;11.366;2023-09-08T05:59:23;13.60;99.90
8043;DHT22;4064;48.132;11.366;2023-09-08T06:01:48;13.70;99.90
8043;DHT22;4064;48.132;11.366;2023-09-08T06:04:14;14.30;99.90
8043;DHT22;4064;48.132;11.366;2023-09-08T06:06:39;15.40;99.90
8043;DHT22;4064;48.132;11.366;2023-09-08T06:09:06;16.60;99.90
8043;DHT22;4064;48.132;11.366;2023-09-08T06:11:34;18.00;99.90
8043;DHT22;4064;48.132;11.366;2023-09-08T06:14:00;18.30;99.90
8043;DHT22;4064;48.132;11.366;2023-09-08T06:16:26;17.90;99.90
8043;DHT22;4064;48.132;11.366;2023-09-08T06:18:51;17.60;99.90
8043;DHT22;4064;48.132;11.366;2023-09-08T06:21:17;17.60;99.90
8043;DHT22;4064;48.132;11.366;2023-09-08T06:23:43;18.50;99.90
8043;DHT22;4064;48.132;11.366;2023-09-08T06:26:08;20.40;99.90
8043;DHT22;4064;48.132;11.366;2023-09-08T06:28:34;21.80;99.90
8043;DHT22;4064;48.132;11.366;2023-09-08T06:31:00;22.40;99.90
8043;DHT22;4064;48.132;11.366;2023-09-08T06:33:26;23.00;99.90
8043;DHT22;4064;48.132;11.366;2023-09-08T06:35:52;23.30;99.90
8043;DHT22;4064;48.132;11.366;2023-09-08T06:38:19;23.60;99.90
8043;DHT22;4064;48.132;11.366;2023-09-08T06:40:45;23.20;99.90
8043;DHT22;4064;48.132;11.366;2023-09-08T06:43:10;23.20;99.90
8043;DHT22;4064;48.132;11.366;2023-09-08T06:45:38;23.00;99.90
8043;DHT22;4064;48.132;11.366;2023-09-08T06:48:05;22.90;99.90
8043;DHT22;4064;48.132;11.366;2023-09-08T06:50:31;23.40;99.90
8043;DHT22;4064;48.132;11.366;2023-09-08T06:52:56;24.00;99.90
8043;DHT22;4064;48.132;11.366;2023-09-08T06:55:22;24.10;99.50
8043;DHT22;4064;48.132;11.366;2023-09-08T06:57:47;24.60;99.20
8043;DHT22;4064;48.132;11.366;2023-09-08T07:00:14;25.10;97.70
8043;DHT22;4064;48.132;11.366;2023-09-08T07:02:40;25.10;98.20
8043;DHT22;4064;48.132;11.366;2023-09-08T07:05:05;24.60;97.90
8043;DHT22;4064;48.132;11.366;2023-09-08T07:07:34;24.30;98.70
8043;DHT22;4064;48.132;11.366;2023-09-08T07:10:01;24.20;99.40
8043;DHT22;4064;48.132;11.366;2023-09-08T07:12:27;24.70;98.60
8043;DHT22;4064;48.132;11.366;2023-09-08T07:14:53;25.70;96.90
8043;DHT22;4064;48.132;11.366;2023-09-08T07:17:18;26.50;94.00
8043;DHT22;4064;48.132;11.366;2023-09-08T07:19:44;26.80;93.90
8043;DHT22;4064;48.132;11.366;2023-09-08T07:22:09;26.40;94.50
8043;DHT22;4064;48.132;11.366;2023-09-08T07:24:35;26.20;93.80
8043;DHT22;4064;48.132;11.366;2023-09-08T07:27:01;25.80;93.60
8043;DHT22;4064;48.132;11.366;2023-09-08T07:29:27;25.30;94.40
8043;DHT22;4064;48.132;11.366;2023-09-08T07:31:52;25.40;94.60
8043;DHT22;4064;48.132;11.366;2023-09-08T07:34:18;25.00;95.90
8043;DHT22;4064;48.132;11.366;2023-09-08T07:36:43;25.10;96.30
8043;DHT22;4064;48.132;11.366;2023-09-08T07:39:09;24.70;97.90
8043;DHT22;4064;48.132;11.366;2023-09-08T07:41:34;25.10;97.20
8043;DHT22;4064;48.132;11.366;2023-09-08T07:44:01;25.50;96.30
8043;DHT22;4064;48.132;11.366;2023-09-08T07:46:27;25.90;96.20
8043;DHT22;4064;48.132;11.366;2023-09-08T07:48:53;26.30;96.10
8043;DHT22;4064;48.132;11.366;2023-09-08T07:51:18;27.00;93.60
8043;DHT22;4064;48.132;11.366;2023-09-08T07:53:44;27.10;93.30
8043;DHT22;4064;48.132;11.366;2023-09-08T07:56:10;27.00;92.80
8043;DHT22;4064;48.132;11.366;2023-09-08T07:58:36;26.50;93.20
8043;DHT22;4064;48.132;11.366;2023-09-08T08:01:02;26.30;94.50
8043;DHT22;4064;48.132;11.366;2023-09-08T08:03:27;25.80;95.30
8043;DHT22;4064;48.132;11.366;2023-09-08T08:05:53;25.60;94.50
8043;DHT22;4064;48.132;11.366;2023-09-08T08:08:18;25.50;94.90
8043;DHT22;4064;48.132;11.366;2023-09-08T08:10:44;25.50;94.30
8043;DHT22;4064;48.132;11.366;2023-09-08T08:13:10;25.50;94.40
8043;DHT22;4064;48.132;11.366;2023-09-08T08:15:39;25.50;94.40
8043;DHT22;4064;48.132;11.366;2023-09-08T08:18:06;25.70;96.50
8043;DHT22;4064;48.132;11.366;2023-09-08T08:30:53;25.90;95.40
8043;DHT22;4064;48.132;11.366;2023-09-08T08:33:20;26.10;94.40
8043;DHT22;4064;48.132;11.366;2023-09-08T08:35:50;26.40;94.20
8043;DHT22;4064;48.132;11.366;2023-09-08T08:38:15;26.20;93.70
8043;DHT22;4064;48.132;11.366;2023-09-08T08:40:41;25.60;94.00
8043;DHT22;4064;48.132;11.366;2023-09-08T08:43:07;26.00;95.80
8043;DHT22;4064;48.132;11.366;2023-09-08T08:45:34;26.20;93.90
8043;DHT22;4064;48.132;11.366;2023-09-08T08:48:02;25.70;93.80
8043;DHT22;4064;48.132;11.366;2023-09-08T08:50:30;26.30;93.80
8043;DHT22;4064;48.132;11.366;2023-09-08T08:52:57;26.50;93.20
8043;DHT22;4064;48.132;11.366;2023-09-08T08:55:25;26.80;93.60
8043;DHT22;4064;48.132;11.366;2023-09-08T08:57:51;26.80;93.10
8043;DHT22;4064;48.132;11.366;2023-09-08T09:00:18;26.70;93.50
8043;DHT22;4064;48.132;11.366;2023-09-08T09:02:44;27.00;93.30
8043;DHT22;4064;48.132;11.366;2023-09-08T09:05:13;26.90;95.00
8043;DHT22;4064;48.132;11.366;2023-09-08T09:07:43;26.60;93.00
8043;DHT22;4064;48.132;11.366;2023-09-08T09:10:09;26.60;92.70
8043;DHT22;4064;48.132;11.366;2023-09-08T09:12:38;26.70;92.70
8043;DHT22;4064;48.132;11.366;2023-09-08T09:15:05;26.90;93.20
8043;DHT22;4064;48.132;11.366;2023-09-08T09:17:35;26.50;93.40
8043;DHT22;4064;48.132;11.366;2023-09-08T09:20:18;26.60;94.00
8043;DHT22;4064;48.132;11.366;2023-09-08T09:22:46;26.40;93.00
8043;DHT22;4064;48.132;11.366;2023-09-08T09:25:26;27.10;93.50
8043;DHT22;4064;48.132;11.366;2023-09-08T09:28:02;27.10;93.60
8043;DHT22;4064;48.132;11.366;2023-09-08T09:30:46;27.50;93.80
8043;DHT22;4064;48.132;11.366;2023-09-08T09:33:12;27.70;92.80
8043;DHT22;4064;48.132;11.366;2023-09-08T09:35:52;27.50;92.40
8043;DHT22;4064;48.132;11.366;2023-09-08T09:38:19;27.80;91.50
8043;DHT22;4064;48.132;11.366;2023-09-08T09:40:46;27.70;92.30
8043;DHT22;4064;48.132;11.366;2023-09-08T09:43:14;27.60;92.10
8043;DHT22;4064;48.132;11.366;2023-09-08T09:45:41;27.10;90.60
8043;DHT22;4064;48.132;11.366;2023-09-08T09:48:09;27.20;91.30
8043;DHT22;4064;48.132;11.366;2023-09-08T09:50:41;27.40;90.30
8043;DHT22;4064;48.132;11.366;2023-09-08T09:53:15;27.80;90.90
8043;DHT22;4064;48.132;11.366;2023-09-08T09:55:43;27.70;91.90
8043;DHT22;4064;48.132;11.366;2023-09-08T09:58:10;27.90;91.70
8043;DHT22;4064;48.132;11.366;2023-09-08T10:00:39;28.20;91.20
8043;DHT22;4064;48.132;11.366;2023-09-08T10:03:13;27.70;89.20
8043;DHT22;4064;48.132;11.366;2023-09-08T10:05:39;27.30;90.10
8043;DHT22;4064;48.132;11.366;2023-09-08T10:08:05;27.70;89.80
8043;DHT22;4064;48.132;11.366;2023-09-08T10:10:32;27.80;90.90
8043;DHT22;4064;48.132;11.366;2023-09-08T10:13:02;28.10;91.50
8043;DHT22;4064;48.132;11.366;2023-09-08T10:15:31;28.10;90.20
8043;DHT22;4064;48.132;11.366;2023-09-08T10:17:57;28.70;91.50
8043;DHT22;4064;48.132;11.366;2023-09-08T10:20:25;28.30;90.20
8043;DHT22;4064;48.132;11.366;2023-09-08T10:23:12;28.40;89.50
8043;DHT22;4064;48.132;11.366;2023-09-08T10:25:46;28.70;88.80
8043;DHT22;4064;48.132;11.366;2023-09-08T10:28:19;28.50;87.70
8043;DHT22;4064;48.132;11.366;2023-09-08T10:30:45;28.20;90.40
8043;DHT22;4064;48.132;11.366;2023-09-08T10:33:12;27.90;91.00
8043;DHT22;4064;48.132;11.366;2023-09-08T10:35:39;27.70;90.20
8043;DHT22;4064;48.132;11.366;2023-09-08T10:38:28;28.00;92.40
8043;DHT22;4064;48.132;11.366;2023-09-08T10:44:01;28.20;90.10
8043;DHT22;4064;48.132;11.366;2023-09-08T10:46:28;28.30;90.50
8043;DHT22;4064;48.132;11.366;2023-09-08T10:49:02;28.30;90.60
8043;DHT22;4064;48.132;11.366;2023-09-08T10:51:29;28.20;91.40
8043;DHT22;4064;48.132;11.366;2023-09-08T10:53:54;28.20;91.00
8043;DHT22;4064;48.132;11.366;2023-09-08T10:56:21;28.30;91.00
8043;DHT22;4064;48.132;11.366;2023-09-08T10:58:51;28.40;91.50
8043;DHT22;4064;48.132;11.366;2023-09-08T11:01:21;28.10;91.50
8043;DHT22;4064;48.132;11.366;2023-09-08T11:03:54;28.30;91.50
8043;DHT22;4064;48.132;11.366;2023-09-08T11:06:21;28.80;90.50
8043;DHT22;4064;48.132;11.366;2023-09-08T11:08:48;29.00;88.00
8043;DHT22;4064;48.132;11.366;2023-09-08T11:11:15;28.70;87.80
8043;DHT22;4064;48.132;11.366;2023-09-08T11:13:42;28.70;87.80
8043;DHT22;4064;48.132;11.366;2023-09-08T11:16:11;28.80;89.10
8043;DHT22;4064;48.132;11.366;2023-09-08T11:18:37;29.00;86.60
8043;DHT22;4064;48.132;11.366;2023-09-08T11:21:07;29.10;89.20
8043;DHT22;4064;48.132;11.366;2023-09-08T11:23:34;29.10;88.70
8043;DHT22;4064;48.132;11.366;2023-09-08T11:26:00;29.30;88.90
8043;DHT22;4064;48.132;11.366;2023-09-08T11:28:27;29.40;89.50
8043;DHT22;4064;48.132;11.366;2023-09-08T11:30:54;29.60;87.30
8043;DHT22;4064;48.132;11.366;2023-09-08T11:33:22;29.00;86.70
8043;DHT22;4064;48.132;11.366;2023-09-08T11:35:52;28.90;89.60
8043;DHT22;4064;48.132;11.366;2023-09-08T11:38:19;29.30;87.80
8043;DHT22;4064;48.132;11.366;2023-09-08T11:40:44;29.20;88.60
8043;DHT22;4064;48.132;11.366;2023-09-08T11:43:11;29.30;91.00
8043;DHT22;4064;48.132;11.366;2023-09-08T11:45:37;29.10;88.10
8043;DHT22;4064;48.132;11.366;2023-09-08T11:48:06;29.40;87.40
8043;DHT22;4064;48.132;11.366;2023-09-08T11:50:32;28.90;88.30
8043;DHT22;4064;48.132;11.366;2023-09-08T11:52:57;29.40;85.70
8043;DHT22;4064;48.132;11.366;2023-09-08T11:55:25;28.90;89.00
8043;DHT22;4064;48.132;11.366;2023-09-08T11:57:55;28.70;90.20
8043;DHT22;4064;48.132;11.366;2023-09-08T12:00:24;29.40;90.10
8043;DHT22;4064;48.132;11.366;2023-09-08T12:02:51;29.60;86.60
8043;DHT22;4064;48.132;11.366;2023-09-08T12:05:27;29.90;84.90
8043;DHT22;4064;48.132;11.366;2023-09-08T12:07:57;30.10;82.70
8043;DHT22;4064;48.132;11.366;2023-09-08T12:10:24;30.10;85.00
8043;DHT22;4064;48.132;11.366;2023-09-08T12:12:52;30.40;84.60
8043;DHT22;4064;48.132;11.366;2023-09-08T12:15:50;30.60;85.00
8043;DHT22;4064;48.132;11.366;2023-09-08T12:18:15;30.90;81.60
8043;DHT22;4064;48.132;11.366;2023-09-08T12:20:41;30.10;84.50
8043;DHT22;4064;48.132;11.366;2023-09-08T12:26:01;30.20;86.20
8043;DHT22;4064;48.132;11.366;2023-09-08T12:28:30;30.70;79.90
8043;DHT22;4064;48.132;11.366;2023-09-08T12:30:56;30.60;79.70
8043;DHT22;4064;48.132;11.366;2023-09-08T12:33:22;30.40;82.30
8043;DHT22;4064;48.132;11.366;2023-09-08T12:35:48;29.90;82.30
8043;DHT22;4064;48.132;11.366;2023-09-08T12:38:16;29.70;85.30
8043;DHT22;4064;48.132;11.366;2023-09-08T12:40:42;29.70;86.40
8043;DHT22;4064;48.132;11.366;2023-09-08T12:43:07;29.20;85.10
8043;DHT22;4064;48.132;11.366;2023-09-08T12:45:33;29.20;83.50
8043;DHT22;4064;48.132;11.366;2023-09-08T12:48:01;29.80;84.80
8043;DHT22;4064;48.132;11.366;2023-09-08T12:50:28;30.60;83.70
8043;DHT22;4064;48.132;11.366;2023-09-08T12:52:55;29.90;83.50
8043;DHT22;4064;48.132;11.366;2023-09-08T12:55:22;29.90;83.70
8043;DHT22;4064;48.132;11.366;2023-09-08T12:57:48;30.00;82.30
8043;DHT22;4064;48.132;11.366;2023-09-08T13:00:15;30.10;82.90
8043;DHT22;4064;48.132;11.366;2023-09-08T13:02:44;30.70;81.00
8043;DHT22;4064;48.132;11.366;2023-09-08T13:05:10;31.20;79.10
8043;DHT22;4064;48.132;11.366;2023-09-08T13:07:35;31.40;77.90
8043;DHT22;4064;48.132;11.366;2023-09-08T13:10:01;31.50;76.70
8043;DHT22;4064;48.132;11.366;2023-09-08T13:12:27;31.30;79.50
8043;DHT22;4064;48.132;11.366;2023-09-08T13:14:53;30.60;80.10
8043;DHT22;4064;48.132;11.366;2023-09-08T13:17:18;30.60;78.70
8043;DHT22;4064;48.132;11.366;2023-09-08T13:19:45;30.90;79.00
8043;DHT22;4064;48.132;11.366;2023-09-08T13:22:11;30.60;81.90
8043;DHT22;4064;48.132;11.366;2023-09-08T13:24:37;31.00;80.50
8043;DHT22;4064;48.132;11.366;2023-09-08T13:27:12;31.70;77.10
8043;DHT22;4064;48.132;11.366;2023-09-08T13:29:40;31.40;79.20
8043;DHT22;4064;48.132;11.366;2023-09-08T13:32:06;31.00;78.50
8043;DHT22;4064;48.132;11.366;2023-09-08T13:34:32;31.30;76.30
8043;DHT22;4064;48.132;11.366;2023-09-08T13:37:01;31.20;77.50
8043;DHT22;4064;48.132;11.366;2023-09-08T13:39:28;31.00;79.70
8043;DHT22;4064;48.132;11.366;2023-09-08T13:41:55;30.00;80.40
8043;DHT22;4064;48.132;11.366;2023-09-08T13:44:23;29.70;80.40
8043;DHT22;4064;48.132;11.366;2023-09-08T13:46:50;29.30;83.70
8043;DHT22;4064;48.132;11.366;2023-09-08T13:49:16;30.10;81.90
8043;DHT22;4064;48.132;11.366;2023-09-08T13:51:42;29.40;82.50
8043;DHT22;4064;48.132;11.366;2023-09-08T13:54:08;29.10;82.30
8043;DHT22;4064;48.132;11.366;2023-09-08T13:56:34;29.60;82.60
8043;DHT22;4064;48.132;11.366;2023-09-08T13:59:01;29.40;83.30
8043;DHT22;4064;48.132;11.366;2023-09-08T14:01:27;29.40;80.70
8043;DHT22;4064;48.132;11.366;2023-09-08T14:03:55;29.80;81.50
8043;DHT22;4064;48.132;11.366;2023-09-08T14:06:22;30.00;78.30
8043;DHT22;4064;48.132;11.366;2023-09-08T14:08:48;30.10;81.40
8043;DHT22;4064;48.132;11.366;2023-09-08T14:11:14;29.40;81.60
8043;DHT22;4064;48.132;11.366;2023-09-08T14:13:40;29.00;82.20
8043;DHT22;4064;48.132;11.366;2023-09-08T14:16:05;29.00;83.50
8043;DHT22;4064;48.132;11.366;2023-09-08T14:18:31;28.50;83.80
8043;DHT22;4064;48.132;11.366;2023-09-08T14:20:57;28.80;83.90
8043;DHT22;4064;48.132;11.366;2023-09-08T14:23:25;29.00;84.60
8043;DHT22;4064;48.132;11.366;2023-09-08T14:25:52;28.60;84.20
8043;DHT22;4064;48.132;11.366;2023-09-08T14:28:20;28.30;83.20
8043;DHT22;4064;48.132;11.366;2023-09-08T14:41:02;28.10;85.30
8043;DHT22;4064;48.132;11.366;2023-09-08T14:43:29;27.80;83.90
8043;DHT22;4064;48.132;11.366;2023-09-08T14:45:55;27.70;85.90
8043;DHT22;4064;48.132;11.366;2023-09-08T14:48:24;28.00;85.90
8043;DHT22;4064;48.132;11.366;2023-09-08T14:50:50;27.60;85.90
8043;DHT22;4064;48.132;11.366;2023-09-08T14:53:15;27.60;86.30
8043;DHT22;4064;48.132;11.366;2023-09-08T14:55:41;27.30;86.80
8043;DHT22;4064;48.132;11.366;2023-09-08T14:58:09;27.50;87.60
8043;DHT22;4064;48.132;11.366;2023-09-08T15:00:36;27.30;86.10
8043;DHT22;4064;48.132;11.366;2023-09-08T15:03:02;27.50;86.70
8043;DHT22;4064;48.132;11.366;2023-09-08T15:05:33;27.30;85.50
8043;DHT22;4064;48.132;11.366;2023-09-08T15:07:59;27.10;85.60
8043;DHT22;4064;48.132;11.366;2023-09-08T15:10:25;27.10;85.20
8043;DHT22;4064;48.132;11.366;2023-09-08T15:12:51;27.10;87.00
8043;DHT22;4064;48.132;11.366;2023-09-08T15:15:16;27.00;85.60
8043;DHT22;4064;48.132;11.366;2023-09-08T15:17:52;27.10;85.30
8043;DHT22;4064;48.132;11.366;2023-09-08T15:20:18;27.20;87.00
8043;DHT22;4064;48.132;11.366;2023-09-08T15:22:44;27.20;84.70
8043;DHT22;4064;48.132;11.366;2023-09-08T15:25:09;27.10;85.60
8043;DHT22;4064;48.132;11.366;2023-09-08T15:27:35;27.00;85.00
8043;DHT22;4064;48.132;11.366;2023-09-08T15:30:00;26.80;84.80
8043;DHT22;4064;48.132;11.366;2023-09-08T15:32:26;27.00;84.50
8043;DHT22;4064;48.132;11.366;2023-09-08T15:34:52;27.00;85.80
8043;DHT22;4064;48.132;11.366;2023-09-08T15:37:18;26.90;85.70
8043;DHT22;4064;48.132;11.366;2023-09-08T15:39:43;26.90;84.70
8043;DHT22;4064;48.132;11.366;2023-09-08T15:42:11;26.90;84.80
8043;DHT22;4064;48.132;11.366;2023-09-08T15:44:37;26.90;86.60
8043;DHT22;4064;48.132;11.366;2023-09-08T15:47:03;26.60;86.60
8043;DHT22;4064;48.132;11.366;2023-09-08T15:49:28;26.40;87.70
8043;DHT22;4064;48.132;11.366;2023-09-08T15:51:54;26.20;87.70
8043;DHT22;4064;48.132;11.366;2023-09-08T15:54:22;26.20;88.60
8043;DHT22;4064;48.132;11.366;2023-09-08T15:56:48;26.10;88.50
8043;DHT22;4064;48.132;11.366;2023-09-08T15:59:14;26.00;87.40
8043;DHT22;4064;48.132;11.366;2023-09-08T16:01:39;26.10;88.80
8043;DHT22;4064;48.132;11.366;2023-09-08T16:04:05;26.20;89.00
8043;DHT22;4064;48.132;11.366;2023-09-08T16:06:35;26.10;88.40
8043;DHT22;4064;48.132;11.366;2023-09-08T16:09:00;25.80;88.80
8043;DHT22;4064;48.132;11.366;2023-09-08T16:11:26;25.80;90.50
8043;DHT22;4064;48.132;11.366;2023-09-08T16:13:51;25.70;90.50